SHCC weather

Clínica Las Condes Heliport
Santiago, Santiago Metropolitan Region, Chile

Public forecast

Using degrees Celsius for public forecast. Weather courtesy of forecast.io.

Closest aviation weather report (METAR) to Clínica Las Condes Heliport

Closest report is Eulogio Sánchez Airport, 4.3 nm (8.0 km) S. Retrieved 2020/08/07 17:00 UTC (41 minutes ago):

SCTB 071700Z 25003KT CAVOK 18/06 Q1018

Closest aviation forecast (TAF) to Clínica Las Condes Heliport

Closest forecast is Comodoro Arturo Merino Benítez International Airport, 12.8 nm (23.7 km) W. Retrieved 2020/08/07 12:00 UTC (6 hours ago):

TAF SCEL 071000Z 0712/0812 15003KT 8000 NSC TX21/0718Z TN06/0810Z TEMPO 0712/0714 5000 HZ BECMG 0716/0718 19010KT CAVOK BECMG 0802/0804 16004KT